Main page
METAR-TAF:

METAR-TAF

Airports :

Zaragoza Airport

Zaragoza, Spain

latitude: 41-40N, longitude: 001-01W, elevation: 263 m

Current weather observation

The report was made 24 minutes ago, at 16:00 UTC
Wind 16 kt from the West/Northwest
Temperature 10°C
Humidity 62%
Pressure 1018 hPa
Visibility 10 km or more
Scattered clouds at a height of 8500 ft

METAR: LEZG 171600Z 29016KT 9999 SCT085 10/03 Q1018

Time: 17:24 (16:24 UTC)

Forecast

The report was made 5 hours and 24 minutes ago, at 11:00 UTC
Forecast valid from 17 at 12 UTC to 18 at 12 UTC
Wind 10 kt from the West/Northwest
Visibility 10 km or more
Few clouds at a height of 2000 ft
Probability 40% :
Temporary
from 17 at 12 UTC to 17 at 18 UTC
Wind 18 kt from the West/Northwest with gusts up to 30 kt

TAF: LEZG 171100Z 1712/1812 30010KT 9999 FEW020 TX12/1714Z TN02/1806Z PROB40 TEMPO 1712/1718 29018G30KT

Weather observations and forecasts of more than 4000 airports (METAR and TAF reports).

The available stations are represented by yellow and red dots on the map.

Hover mouse over dot to see the name of the station.

Then click to see weather observations and forecasts.

To change the map : click on the green buttons with a black cross to zoom in, on the green button with a dash to zoom out, or on the green arrows for adjacent maps.


METAR-TAF: